Time;durP1;ratioP1;P1;durP2;ratioP2;P2;SDS_P1;SDS_P2;PMS_P1;PMS_P2;Temp;Humidity;BMP_temperature;BMP_pressure;BME280_temperature;BME280_humidity;BME280_pressure;Samples;Min_cycle;Max_cycle;Signal;HPM_P1;HPM_P2
2021/01/17 00:00:11;;;;;;;5.57;4.95;;;;;;;18.61;45.35;101516.81;5048059;28;20057;-75
2021/01/17 00:02:37;;;;;;;5.78;5.13;;;;;;;18.61;45.41;101515.06;5031623;28;20072;-75
2021/01/17 00:05:11;;;;;;;5.82;4.97;;;;;;;18.62;45.54;101518.56;5031746;28;20025;-75
2021/01/17 00:07:37;;;;;;;7.15;5.30;;;;;;;18.59;45.50;101523.78;5028064;28;20079;-75
2021/01/17 00:10:07;;;;;;;6.25;5.60;;;;;;;18.58;45.17;101528.16;5033852;28;20377;-75
2021/01/17 00:12:33;;;;;;;5.78;4.97;;;;;;;18.50;45.51;101514.13;5020743;28;20108;-75
2021/01/17 00:14:58;;;;;;;5.53;4.93;;;;;;;18.47;45.29;101507.09;5031715;28;20064;-76
2021/01/17 00:17:23;;;;;;;5.72;5.13;;;;;;;18.49;45.40;101510.63;5015063;28;20057;-75
2021/01/17 00:19:49;;;;;;;5.35;4.85;;;;;;;18.55;45.53;101515.03;5014963;28;20045;-75
2021/01/17 00:22:15;;;;;;;5.75;4.75;;;;;;;18.53;45.39;101517.63;5000228;28;20037;-75
2021/01/17 00:24:40;;;;;;;5.97;5.28;;;;;;;18.49;45.44;101496.66;5045963;28;20044;-75
2021/01/17 00:27:05;;;;;;;5.28;4.78;;;;;;;18.45;45.43;101487.88;4999015;28;20037;-75
2021/01/17 00:29:31;;;;;;;5.28;4.45;;;;;;;18.47;45.50;101495.75;5011712;28;20502;-76
2021/01/17 00:31:56;;;;;;;5.20;4.68;;;;;;;18.52;45.56;101492.31;5011082;28;20461;-75
2021/01/17 00:34:22;;;;;;;5.80;5.20;;;;;;;18.54;45.56;101497.56;4995584;28;20498;-75
2021/01/17 00:36:47;;;;;;;6.20;4.63;;;;;;;18.46;45.36;101481.78;5019193;28;20510;-75
2021/01/17 00:39:13;;;;;;;5.15;4.65;;;;;;;18.47;45.25;101483.53;5031646;28;20049;-76
2021/01/17 00:41:38;;;;;;;5.13;4.53;;;;;;;18.49;45.65;101489.66;4998445;28;20383;-75
2021/01/17 00:44:05;;;;;;;5.60;4.97;;;;;;;18.44;45.28;101483.50;4999206;28;20037;-74
2021/01/17 00:46:39;;;;;;;5.88;5.32;;;;;;;18.44;45.48;101482.63;5048070;28;20033;-76
2021/01/17 00:49:05;;;;;;;5.50;4.90;;;;;;;18.40;45.39;101473.03;5031249;28;20025;-76
2021/01/17 00:51:44;;;;;;;6.30;4.70;;;;;;;18.48;45.52;101474.81;5048196;28;20034;-76
2021/01/17 00:54:13;;;;;;;5.80;5.22;;;;;;;18.32;45.30;101451.16;5050024;28;20553;-75
2021/01/17 00:56:39;;;;;;;7.43;5.25;;;;;;;18.41;45.29;101466.94;5041403;28;20021;-80
2021/01/17 00:59:06;;;;;;;6.22;4.93;;;;;;;18.44;45.35;101480.91;5038874;28;20025;-80
2021/01/17 01:01:43;;;;;;;6.00;5.40;;;;;;;18.41;45.07;101477.41;5032621;28;20515;-80
2021/01/17 01:04:13;;;;;;;5.85;5.25;;;;;;;18.42;45.42;101472.19;5036523;28;20052;-80
2021/01/17 01:06:39;;;;;;;5.55;5.05;;;;;;;18.40;45.27;101471.28;5047897;28;20075;-80
2021/01/17 01:09:15;;;;;;;6.07;5.00;;;;;;;18.41;45.36;101473.03;5018321;28;20029;-80
2021/01/17 01:11:41;;;;;;;4.88;4.38;;;;;;;18.42;45.19;101476.53;5035289;28;20041;-80
2021/01/17 01:14:07;;;;;;;5.88;5.22;;;;;;;18.38;45.05;101478.25;5019258;28;20071;-80
2021/01/17 01:16:33;;;;;;;5.15;4.63;;;;;;;18.37;45.47;101471.28;5019190;28;20094;-80
2021/01/17 01:19:00;;;;;;;5.55;4.93;;;;;;;18.40;45.45;101476.53;5035357;28;20030;-80
2021/01/17 01:21:32;;;;;;;5.93;4.90;;;;;;;18.41;45.45;101480.03;5035715;28;20468;-80
2021/01/17 01:23:59;;;;;;;5.25;4.75;;;;;;;18.36;45.36;101471.25;5022584;28;20041;-80
2021/01/17 01:26:25;;;;;;;5.72;4.45;;;;;;;18.39;45.23;101474.78;5029228;28;20075;-80
2021/01/17 01:28:55;;;;;;;5.40;4.85;;;;;;;18.39;45.56;101476.53;5034668;28;20034;-75
2021/01/17 01:31:25;;;;;;;5.22;4.57;;;;;;;18.26;45.37;101448.50;5050934;28;20017;-76
2021/01/17 01:33:51;;;;;;;5.43;4.93;;;;;;;18.23;45.23;101438.91;5051093;28;20041;-75
2021/01/17 01:36:18;;;;;;;6.45;5.03;;;;;;;18.38;45.18;101461.69;5031358;28;20083;-75
2021/01/17 01:38:43;;;;;;;5.95;5.35;;;;;;;18.29;45.32;101451.16;5033936;28;20040;-75
2021/01/17 01:41:09;;;;;;;4.78;4.22;;;;;;;18.25;45.36;101446.75;5035649;28;20017;-76
2021/01/17 01:43:34;;;;;;;5.00;4.50;;;;;;;18.36;45.28;101466.03;5033431;28;20036;-75
2021/01/17 01:45:59;;;;;;;5.75;5.25;;;;;;;18.34;45.23;101468.63;5034240;28;20033;-75
2021/01/17 01:48:30;;;;;;;5.70;5.13;;;;;;;18.25;45.15;101458.09;5034055;28;20030;-80
2021/01/17 01:50:56;;;;;;;5.13;4.38;;;;;;;18.30;45.21;101459.03;5031329;28;20025;-80
2021/01/17 01:53:21;;;;;;;5.60;5.00;;;;;;;18.28;45.52;101460.75;5015770;28;20033;-80
2021/01/17 01:55:46;;;;;;;4.97;4.38;;;;;;;18.26;45.15;101461.59;5034121;28;20116;-80
2021/01/17 01:58:16;;;;;;;6.00;5.10;;;;;;;18.31;45.45;101465.09;5050795;28;20419;-80
2021/01/17 02:00:41;;;;;;;5.47;4.97;;;;;;;18.32;45.08;101470.34;5035377;28;20029;-80
2021/01/17 02:03:06;;;;;;;4.97;4.45;;;;;;;18.32;45.40;101466.84;5015817;28;20121;-80
2021/01/17 02:05:32;;;;;;;5.47;4.93;;;;;;;18.30;45.25;101466.00;5012052;28;20036;-80
2021/01/17 02:08:18;;;;;;;5.10;4.60;;;;;;;18.31;45.25;101465.97;5032516;28;20025;-80
2021/01/17 02:10:44;;;;;;;5.20;4.40;;;;;;;18.27;45.34;101464.25;5044916;28;20049;-80
2021/01/17 02:13:36;;;;;;;6.30;5.07;;;;;;;18.31;45.45;101465.09;5037805;28;20386;-80
2021/01/17 02:16:03;;;;;;;5.55;4.72;;;;;;;18.21;45.24;101458.94;5036867;28;20096;-80
2021/01/17 02:18:33;;;;;;;4.88;4.38;;;;;;;18.27;45.30;101466.84;5038622;28;20067;-80
2021/01/17 02:21:00;;;;;;;4.93;4.43;;;;;;;18.21;45.34;101448.47;5046776;28;20021;-80
2021/01/17 02:23:35;;;;;;;4.95;4.45;;;;;;;18.26;45.23;101459.88;5053540;28;20048;-79
2021/01/17 02:26:01;;;;;;;5.32;4.82;;;;;;;18.19;45.35;101450.22;5054890;28;20471;-80
2021/01/17 02:28:26;;;;;;;5.32;4.53;;;;;;;18.22;45.22;101452.84;5001623;28;20079;-79
2021/01/17 02:30:55;;;;;;;5.22;4.72;;;;;;;18.20;45.64;101459.81;5009577;28;20116;-79
2021/01/17 02:33:29;;;;;;;6.10;5.32;;;;;;;18.19;45.29;101458.94;5033568;28;20041;-80
2021/01/17 02:36:12;;;;;;;5.25;4.53;;;;;;;18.16;45.15;101444.97;5034756;28;20036;-80
2021/01/17 02:38:44;;;;;;;5.13;4.63;;;;;;;18.24;45.52;101460.72;5053459;28;20538;-80
2021/01/17 02:41:34;;;;;;;6.15;5.00;;;;;;;18.33;45.42;101466.00;5054700;28;20024;-80
2021/01/17 02:44:00;;;;;;;4.40;3.88;;;;;;;18.39;44.93;101458.19;5055047;28;20525;-80
2021/01/17 02:46:26;;;;;;;4.93;4.43;;;;;;;18.43;45.33;101452.13;5051502;28;20036;-80
2021/01/17 02:48:51;;;;;;;5.35;4.82;;;;;;;18.45;45.34;101458.19;5033592;28;20037;-80
2021/01/17 02:51:16;;;;;;;4.70;4.07;;;;;;;18.48;45.17;101456.47;5036945;28;20029;-80
2021/01/17 02:53:51;;;;;;;6.18;4.20;;;;;;;18.54;45.18;101458.28;5036783;28;20041;-80
2021/01/17 02:56:18;;;;;;;4.22;3.83;;;;;;;18.51;45.21;101451.28;5036460;28;20086;-80
2021/01/17 02:58:48;;;;;;;5.00;4.43;;;;;;;18.54;45.17;101458.28;5019738;28;20036;-80
2021/01/17 03:01:18;;;;;;;4.50;3.55;;;;;;;18.55;45.04;101452.16;5036055;28;20494;-80
2021/01/17 03:03:46;;;;;;;5.25;4.15;;;;;;;18.59;44.98;101456.56;5033895;28;20029;-80
2021/01/17 03:06:13;;;;;;;5.40;4.65;;;;;;;18.62;45.06;101455.69;5052064;28;20044;-80
2021/01/17 03:08:38;;;;;;;4.55;4.13;;;;;;;18.62;44.91;101453.97;5037662;28;20116;-80
2021/01/17 03:11:04;;;;;;;5.25;3.90;;;;;;;18.68;44.91;101453.13;5037146;28;20128;-80
2021/01/17 03:13:31;;;;;;;4.57;4.18;;;;;;;18.63;45.04;101447.84;5052913;28;20394;-80
2021/01/17 03:15:57;;;;;;;4.18;3.78;;;;;;;18.68;45.02;101459.25;5053417;28;20036;-80
2021/01/17 03:18:23;;;;;;;4.40;4.00;;;;;;;18.70;45.13;101452.25;5036897;28;20033;-79
2021/01/17 03:20:48;;;;;;;3.75;3.35;;;;;;;18.71;45.01;101450.50;5054874;28;20021;-80
2021/01/17 03:23:13;;;;;;;4.70;3.78;;;;;;;18.62;45.07;101437.38;5019954;28;20033;-80
2021/01/17 03:25:39;;;;;;;5.10;4.50;;;;;;;18.66;44.98;101447.88;5037805;28;20124;-80
2021/01/17 03:28:04;;;;;;;4.32;3.92;;;;;;;18.74;45.05;101447.88;5041477;28;20025;-80
2021/01/17 03:30:30;;;;;;;4.47;3.40;;;;;;;18.73;45.11;101448.75;5035224;28;20040;-79
2021/01/17 03:32:55;;;;;;;4.00;3.53;;;;;;;18.71;45.14;101443.50;5007808;28;20028;-79
2021/01/17 03:35:20;;;;;;;3.90;3.50;;;;;;;18.76;44.76;101454.91;5041401;28;20025;-80
2021/01/17 03:37:46;;;;;;;4.63;3.67;;;;;;;18.71;45.14;101451.38;5043105;28;20056;-80
2021/01/17 03:40:11;;;;;;;4.13;3.72;;;;;;;18.76;44.96;101454.91;5025784;28;20036;-80
2021/01/17 03:42:37;;;;;;;4.55;4.15;;;;;;;18.77;45.05;101453.16;5042342;28;20049;-79
2021/01/17 03:45:03;;;;;;;5.25;4.57;;;;;;;18.81;45.04;101447.06;5023303;28;20025;-80
2021/01/17 03:47:28;;;;;;;4.25;3.85;;;;;;;18.81;45.01;101452.31;5022120;28;20048;-79
2021/01/17 03:49:53;;;;;;;4.10;3.30;;;;;;;18.78;44.75;101454.91;5055627;28;20090;-80
2021/01/17 03:52:19;;;;;;;4.00;3.60;;;;;;;18.80;44.97;101454.03;5020483;28;20029;-80
2021/01/17 03:54:44;;;;;;;3.97;3.58;;;;;;;18.79;45.11;101452.28;5035468;28;20033;-80
2021/01/17 03:57:09;;;;;;;4.30;3.58;;;;;;;18.77;45.15;101451.41;5025913;28;20487;-80
2021/01/17 03:59:35;;;;;;;4.78;4.15;;;;;;;18.74;45.19;101454.00;5019484;28;20052;-80
2021/01/17 04:02:00;;;;;;;4.57;3.70;;;;;;;18.71;45.34;101447.88;5037673;28;20059;-80
2021/01/17 04:04:25;;;;;;;3.45;3.15;;;;;;;18.64;45.59;101451.34;5020932;28;20056;-80
2021/01/17 04:06:51;;;;;;;4.43;3.67;;;;;;;18.65;45.29;101461.84;5020550;28;20112;-81
2021/01/17 04:09:16;;;;;;;5.03;4.32;;;;;;;18.59;45.38;101448.69;5019886;28;20029;-80
2021/01/17 04:11:42;;;;;;;4.03;3.63;;;;;;;18.58;45.61;101460.03;5024132;28;20053;-80
2021/01/17 04:14:07;;;;;;;3.88;3.47;;;;;;;18.59;45.52;101466.16;5027407;28;20052;-80
2021/01/17 04:16:32;;;;;;;4.28;3.88;;;;;;;18.59;45.60;101467.03;5019993;28;20037;-79
2021/01/17 04:18:58;;;;;;;4.72;4.32;;;;;;;18.52;45.80;101457.38;5019009;28;20071;-80
2021/01/17 04:21:23;;;;;;;4.03;3.60;;;;;;;18.52;45.69;101460.88;5001695;28;20025;-79
2021/01/17 04:23:48;;;;;;;4.18;3.78;;;;;;;18.50;45.65;101457.38;5036417;28;20040;-80
2021/01/17 04:26:17;;;;;;;4.25;3.50;;;;;;;18.49;45.81;101452.13;5036667;28;20539;-80
2021/01/17 04:28:43;;;;;;;3.83;3.10;;;;;;;18.50;45.78;101453.88;5053487;28;20021;-80
2021/01/17 04:31:08;;;;;;;3.92;3.08;;;;;;;18.46;45.80;101452.09;5032619;28;20079;-80
2021/01/17 04:33:34;;;;;;;4.55;3.42;;;;;;;18.46;45.70;101452.09;5001186;28;20037;-80
2021/01/17 04:35:59;;;;;;;3.88;3.08;;;;;;;18.48;45.66;101456.47;5003933;28;20036;-80
2021/01/17 04:38:24;;;;;;;3.40;3.10;;;;;;;18.47;45.93;101459.97;5023529;28;20063;-80
2021/01/17 04:40:50;;;;;;;3.70;3.28;;;;;;;18.36;45.73;101439.84;5039644;28;20064;-80
2021/01/17 04:43:29;;;;;;;4.07;3.47;;;;;;;18.40;45.66;101445.09;5039685;28;20368;-79
2021/01/17 04:45:58;;;;;;;3.85;3.42;;;;;;;18.42;45.68;101458.22;5057569;28;20040;-80
2021/01/17 04:48:25;;;;;;;3.65;3.28;;;;;;;18.44;45.87;101459.06;5057714;28;20025;-80
2021/01/17 04:50:56;;;;;;;4.90;3.53;;;;;;;18.41;45.71;101453.84;5039199;28;20494;-80
2021/01/17 04:53:22;;;;;;;5.43;4.10;;;;;;;18.50;45.70;101456.50;5056608;28;20078;-77
2021/01/17 04:55:49;;;;;;;3.90;3.20;;;;;;;18.48;45.65;101456.47;5031490;28;20525;-76
2021/01/17 04:58:19;;;;;;;3.58;3.08;;;;;;;18.55;45.49;101449.53;5039102;28;20029;-75
2021/01/17 05:00:58;;;;;;;7.05;3.28;;;;;;;18.67;45.16;101454.88;5010499;28;20106;-78
2021/01/17 05:03:26;;;;;;;3.42;3.13;;;;;;;18.78;45.42;101466.25;5022410;28;20043;-77
2021/01/17 05:06:27;;;;;;;5.85;3.28;;;;;;;18.81;45.36;101465.41;5031214;28;20095;-77
2021/01/17 05:09:03;;;;;;;4.15;2.78;;;;;;;18.89;45.09;101464.56;5016641;28;20041;-77
2021/01/17 05:11:38;;;;;;;5.97;3.88;;;;;;;18.87;45.25;101468.91;5055354;28;20076;-77
2021/01/17 05:14:27;;;;;;;7.03;3.50;;;;;;;18.82;45.16;101468.03;5055763;28;20052;-77
2021/01/17 05:16:56;;;;;;;5.72;3.00;;;;;;;18.89;45.10;101468.91;5056240;28;20032;-77
2021/01/17 05:19:21;;;;;;;6.15;3.25;;;;;;;18.88;45.19;101468.03;5042324;28;20029;-77
2021/01/17 05:21:51;;;;;;;5.93;2.55;;;;;;;18.88;45.16;101472.41;5061256;28;20056;-77
2021/01/17 05:24:18;;;;;;;3.85;2.72;;;;;;;18.88;45.08;101469.78;5043622;28;20028;-77
2021/01/17 05:26:58;;;;;;;5.10;2.58;;;;;;;18.95;45.20;101470.69;5043531;28;20028;-77
2021/01/17 05:29:26;;;;;;;3.97;2.80;;;;;;;18.92;45.21;101469.81;5060965;28;20029;-78
2021/01/17 05:31:59;;;;;;;4.57;3.25;;;;;;;18.94;45.20;101468.94;5033785;28;20026;-80
2021/01/17 05:34:26;;;;;;;3.80;3.10;;;;;;;19.05;44.68;101480.31;5063104;28;20089;-78
2021/01/17 05:37:04;;;;;;;3.72;2.63;;;;;;;19.05;44.95;101488.19;5054542;28;20052;-77
2021/01/17 05:39:31;;;;;;;5.45;2.83;;;;;;;19.00;45.09;101479.44;5061349;28;20475;-76
2021/01/17 05:42:09;;;;;;;4.35;2.97;;;;;;;19.07;45.05;101491.69;5047255;28;20021;-76
2021/01/17 05:44:35;;;;;;;4.85;2.92;;;;;;;19.05;44.83;101493.44;5046851;28;20030;-77
2021/01/17 05:47:06;;;;;;;4.40;2.80;;;;;;;19.00;44.98;101488.16;5037935;28;20071;-77
2021/01/17 05:49:32;;;;;;;4.47;3.28;;;;;;;19.04;44.77;101492.56;5022952;28;20064;-77
2021/01/17 05:52:12;;;;;;;5.32;2.70;;;;;;;19.05;44.77;101491.69;5030927;28;20049;-77
2021/01/17 05:54:39;;;;;;;3.17;2.10;;;;;;;19.02;44.88;101496.91;5038874;28;20113;-77
2021/01/17 05:57:16;;;;;;;5.75;2.85;;;;;;;18.99;45.03;101498.63;5027603;28;20043;-77
2021/01/17 05:59:42;;;;;;;5.07;2.40;;;;;;;19.06;45.02;101503.06;5039162;28;20120;-77
2021/01/17 06:02:12;;;;;;;3.65;2.28;;;;;;;19.06;44.68;101511.78;5003859;28;20480;-77
2021/01/17 06:04:40;;;;;;;3.20;2.35;;;;;;;19.05;44.97;101509.16;5025417;28;20057;-77
2021/01/17 06:07:07;;;;;;;3.05;2.13;;;;;;;19.10;44.85;101513.53;5037247;28;20506;-77
2021/01/17 06:09:36;;;;;;;2.88;2.47;;;;;;;19.08;44.53;101517.03;5037261;28;20036;-77
2021/01/17 06:12:02;;;;;;;5.78;2.47;;;;;;;19.07;44.81;101515.28;5042459;28;20041;-77
2021/01/17 06:14:27;;;;;;;3.80;2.20;;;;;;;19.08;44.94;101520.53;5019355;28;20479;-77
2021/01/17 06:17:01;;;;;;;2.90;1.98;;;;;;;19.12;44.76;101522.28;5055275;28;20543;-77
2021/01/17 06:19:35;;;;;;;5.57;2.42;;;;;;;19.11;44.83;101533.63;5039507;28;20453;-77
2021/01/17 06:22:07;;;;;;;3.65;2.33;;;;;;;19.12;44.69;101538.00;5037669;28;20029;-77
2021/01/17 06:24:37;;;;;;;4.45;2.20;;;;;;;19.14;44.84;101531.03;5054978;28;20486;-77
2021/01/17 06:27:04;;;;;;;3.38;1.92;;;;;;;19.12;44.80;101531.88;5033108;28;20029;-77
2021/01/17 06:29:40;;;;;;;3.30;1.90;;;;;;;19.15;44.68;101547.63;5049466;28;20111;-77
2021/01/17 06:32:11;;;;;;;3.88;2.00;;;;;;;19.17;44.80;101544.16;5041952;28;20514;-77
2021/01/17 06:34:42;;;;;;;3.90;2.45;;;;;;;19.13;44.78;101538.88;5048194;28;20029;-77
2021/01/17 06:37:10;;;;;;;3.15;2.15;;;;;;;19.14;44.71;101553.75;5035173;28;20032;-77
2021/01/17 06:39:42;;;;;;;2.97;2.35;;;;;;;19.16;44.67;101550.28;5020042;28;20384;-77
2021/01/17 06:42:13;;;;;;;3.72;2.20;;;;;;;19.14;44.93;101546.75;5049750;28;20051;-77
2021/01/17 06:44:39;;;;;;;3.53;2.25;;;;;;;19.14;44.55;101548.50;5054393;28;20032;-77
2021/01/17 06:47:14;;;;;;;3.38;1.92;;;;;;;19.16;44.79;101549.38;5036356;28;20059;-75
2021/01/17 06:49:39;;;;;;;3.67;2.22;;;;;;;19.16;44.75;101554.63;5046868;28;20035;-75
2021/01/17 06:52:05;;;;;;;2.00;1.60;;;;;;;19.14;44.77;101556.38;5013371;28;20025;-75
2021/01/17 06:54:42;;;;;;;4.40;2.10;;;;;;;19.17;44.86;101564.25;5047098;28;20075;-75
2021/01/17 06:57:08;;;;;;;4.28;2.13;;;;;;;19.19;44.65;101563.41;5044998;28;20021;-75
2021/01/17 06:59:42;;;;;;;2.67;1.70;;;;;;;19.20;44.92;101569.53;5037131;28;20044;-76
2021/01/17 07:02:17;;;;;;;4.97;2.30;;;;;;;19.20;45.17;101575.63;5027147;28;20079;-74
2021/01/17 07:04:51;;;;;;;2.60;1.65;;;;;;;19.28;45.06;101573.91;5051106;28;20390;-75
2021/01/17 07:07:41;;;;;;;4.10;2.22;;;;;;;19.27;45.02;101585.25;5035801;28;20059;-75
2021/01/17 07:10:08;;;;;;;4.53;2.30;;;;;;;19.20;45.47;101578.25;5053433;28;20108;-75
2021/01/17 07:12:55;;;;;;;3.38;2.42;;;;;;;19.25;45.18;101583.50;5052468;28;20075;-76
2021/01/17 07:15:31;;;;;;;4.15;2.63;;;;;;;19.24;45.38;101589.63;5022336;28;20552;-76
2021/01/17 07:18:01;;;;;;;3.78;2.28;;;;;;;19.28;45.16;101592.25;5054143;28;20036;-76
2021/01/17 07:20:29;;;;;;;4.10;2.53;;;;;;;19.32;45.07;101594.91;5036532;28;20137;-75
2021/01/17 07:22:57;;;;;;;5.70;2.20;;;;;;;19.35;45.09;101605.38;5049709;28;20025;-73
2021/01/17 07:25:24;;;;;;;7.15;1.98;;;;;;;19.35;44.97;101595.78;5036012;28;20021;-75
2021/01/17 07:28:03;;;;;;;3.83;2.17;;;;;;;19.32;45.26;101600.16;5018753;28;20043;-75
2021/01/17 07:30:40;;;;;;;5.53;2.20;;;;;;;19.30;45.78;101609.75;5053010;28;20021;-75
2021/01/17 07:33:08;;;;;;;5.78;2.60;;;;;;;19.26;45.61;101601.88;5042624;28;20409;-75
2021/01/17 07:35:36;;;;;;;5.32;2.65;;;;;;;19.30;45.72;101615.88;5043793;28;20544;-75
2021/01/17 07:38:09;;;;;;;5.72;2.67;;;;;;;19.24;45.79;101611.47;5040838;28;20029;-75
2021/01/17 07:40:52;;;;;;;7.10;2.30;;;;;;;19.21;45.76;101607.97;5035326;28;20410;-75
2021/01/17 07:43:20;;;;;;;4.07;2.35;;;;;;;19.27;46.20;101618.47;5045300;28;20027;-78
2021/01/17 07:45:45;;;;;;;5.30;2.10;;;;;;;19.21;45.83;101621.94;5054412;28;20120;-78
2021/01/17 07:48:13;;;;;;;6.70;2.47;;;;;;;19.27;45.74;101627.22;5036032;28;20457;-79
2021/01/17 07:50:42;;;;;;;3.03;2.28;;;;;;;19.28;45.90;101628.97;5036823;28;20029;-77
2021/01/17 07:53:19;;;;;;;4.10;2.10;;;;;;;19.33;45.68;101636.88;5052508;28;20147;-74
2021/01/17 07:55:46;;;;;;;5.25;2.90;;;;;;;19.36;45.86;101643.84;5027249;28;20025;-77
2021/01/17 07:58:12;;;;;;;4.22;2.67;;;;;;;19.34;45.87;101648.25;5034377;28;20029;-77
2021/01/17 08:00:39;;;;;;;4.15;2.03;;;;;;;19.33;45.85;101655.22;5017932;28;20040;-78
2021/01/17 08:03:05;;;;;;;4.68;2.70;;;;;;;19.31;45.89;101650.84;5020407;28;20040;-79
2021/01/17 08:06:09;;;;;;;4.85;2.15;;;;;;;19.36;45.83;101664.84;5019519;28;20532;-77
2021/01/17 08:08:34;;;;;;;4.45;1.80;;;;;;;19.36;45.93;101665.72;4972865;28;20043;-78
2021/01/17 08:11:01;;;;;;;7.03;2.13;;;;;;;19.38;45.96;101669.22;4976828;28;20055;-78
2021/01/17 08:13:35;;;;;;;4.00;2.22;;;;;;;19.36;45.75;101665.72;5007915;28;20049;-78
2021/01/17 08:16:11;;;;;;;4.60;2.28;;;;;;;19.34;45.81;101671.84;5036858;28;20021;-78
2021/01/17 08:18:37;;;;;;;3.78;2.15;;;;;;;19.31;46.05;101669.19;5052645;28;20057;-78
2021/01/17 08:21:21;;;;;;;5.25;1.73;;;;;;;19.40;45.76;101687.59;5053432;28;20408;-78
2021/01/17 08:24:11;;;;;;;2.55;1.80;;;;;;;19.38;45.85;101686.72;5032372;28;20029;-77
2021/01/17 08:27:03;;;;;;;3.60;2.17;;;;;;;19.39;45.89;101688.47;5023373;28;20024;-78
2021/01/17 08:29:28;;;;;;;4.15;2.15;;;;;;;19.37;45.68;101695.44;5032641;28;20049;-78
2021/01/17 08:31:54;;;;;;;4.03;1.92;;;;;;;19.34;45.70;101696.34;5050776;28;20531;-78
2021/01/17 08:34:28;;;;;;;7.13;2.63;;;;;;;19.41;45.87;101712.97;5038023;28;20056;-78
2021/01/17 08:36:55;;;;;;;4.30;1.80;;;;;;;19.39;45.83;101709.44;5055715;28;20063;-77
2021/01/17 08:39:44;;;;;;;4.45;2.30;;;;;;;19.42;45.84;101719.97;5021738;28;20075;-78
2021/01/17 08:42:49;;;;;;;5.07;2.22;;;;;;;19.41;45.94;101719.09;5037273;28;20024;-78
2021/01/17 08:45:21;;;;;;;3.65;2.17;;;;;;;19.43;45.54;101719.97;5003474;28;20530;-77
2021/01/17 08:47:53;;;;;;;4.97;2.60;;;;;;;19.39;45.76;101720.81;5052566;28;20029;-79
2021/01/17 08:50:32;;;;;;;3.85;2.30;;;;;;;19.44;45.62;101726.97;5039292;28;20025;-78
2021/01/17 08:53:15;;;;;;;3.88;1.90;;;;;;;19.43;45.67;101727.84;5054130;28;20032;-81
2021/01/17 08:55:48;;;;;;;3.85;2.05;;;;;;;19.44;45.85;101728.72;5038692;28;20029;-79
2021/01/17 08:58:34;;;;;;;4.82;2.08;;;;;;;19.46;45.82;101729.63;5048837;28;20446;-75
2021/01/17 09:00:59;;;;;;;3.35;1.67;;;;;;;19.50;46.34;101734.91;5055889;28;20112;-77
2021/01/17 09:03:30;;;;;;;3.42;1.92;;;;;;;19.52;45.94;101737.53;5056829;28;20532;-78
2021/01/17 09:06:01;;;;;;;4.20;2.17;;;;;;;19.48;45.93;101747.09;5038963;28;20100;-78
2021/01/17 09:08:31;;;;;;;3.60;1.65;;;;;;;19.44;45.92;101731.34;5052498;28;20037;-79
2021/01/17 09:10:57;;;;;;;2.92;1.60;;;;;;;19.41;46.05;101733.94;5038164;28;20067;-78
2021/01/17 09:13:30;;;;;;;2.53;1.60;;;;;;;19.51;46.10;101751.50;5030601;28;20049;-78
2021/01/17 09:16:00;;;;;;;5.15;2.05;;;;;;;19.53;45.65;101750.66;5040189;28;20030;-79
2021/01/17 09:18:28;;;;;;;3.38;1.75;;;;;;;19.56;46.04;101755.06;5054260;28;20489;-79
2021/01/17 09:20:55;;;;;;;5.05;2.22;;;;;;;19.54;45.77;101762.91;5048944;28;20032;-79
2021/01/17 09:23:22;;;;;;;4.18;2.03;;;;;;;19.55;45.72;101769.91;4997141;28;20040;-75
2021/01/17 09:25:54;;;;;;;5.25;2.30;;;;;;;19.56;45.62;101771.66;5032595;28;20033;-75
2021/01/17 09:28:19;;;;;;;5.25;2.10;;;;;;;19.50;45.72;101771.63;5049216;28;22420;-75
2021/01/17 09:30:52;;;;;;;4.07;2.03;;;;;;;19.50;45.66;101779.50;5035282;28;20094;-75
2021/01/17 09:33:18;;;;;;;4.85;1.92;;;;;;;19.52;45.77;101800.50;5016232;28;20030;-75
2021/01/17 09:35:45;;;;;;;6.45;3.00;;;;;;;19.47;45.69;101789.97;5035234;28;20065;-74
2021/01/17 09:38:19;;;;;;;4.93;1.90;;;;;;;19.44;45.68;101800.44;5037004;28;20087;-74
2021/01/17 09:40:54;;;;;;;6.07;2.42;;;;;;;19.41;45.66;101797.78;5047438;28;20040;-75
2021/01/17 09:43:20;;;;;;;3.97;1.88;;;;;;;19.46;45.63;101800.44;5049655;28;20115;-74
2021/01/17 09:45:53;;;;;;;9.98;2.72;;;;;;;19.45;45.46;101810.06;5036675;28;20112;-74
2021/01/17 09:48:23;;;;;;;6.55;2.03;;;;;;;19.48;45.69;101824.91;5033036;28;20383;-72
2021/01/17 09:50:50;;;;;;;3.85;1.90;;;;;;;19.55;45.57;101826.75;5034804;28;20033;-75
2021/01/17 09:53:16;;;;;;;5.88;2.53;;;;;;;19.54;45.51;101836.38;5047377;28;20044;-75
2021/01/17 09:55:43;;;;;;;5.32;1.77;;;;;;;19.52;45.48;101835.47;5049715;28;20025;-75
2021/01/17 09:58:13;;;;;;;6.53;2.33;;;;;;;19.48;45.45;101830.16;5047821;28;20759;-75
2021/01/17 10:00:39;;;;;;;7.60;1.85;;;;;;;19.51;45.56;101840.72;5053267;28;20033;-79
2021/01/17 10:03:15;;;;;;;4.47;1.55;;;;;;;19.46;45.43;101831.91;5033944;28;20032;-78
2021/01/17 10:05:43;;;;;;;4.78;2.05;;;;;;;19.48;45.49;101838.03;5052438;28;20035;-78
2021/01/17 10:08:10;;;;;;;3.67;1.92;;;;;;;19.48;45.40;101846.78;5036628;28;20036;-78
2021/01/17 10:10:41;;;;;;;2.75;1.63;;;;;;;19.47;45.60;101849.41;5030733;28;20124;-79
2021/01/17 10:13:07;;;;;;;5.38;2.03;;;;;;;19.47;45.48;101844.16;5034395;28;20034;-79
2021/01/17 10:15:34;;;;;;;2.55;1.33;;;;;;;19.51;45.40;101859.94;5053835;28;20032;-78
2021/01/17 10:18:00;;;;;;;3.88;1.70;;;;;;;19.45;45.44;101852.03;5050758;28;20108;-75
2021/01/17 10:20:43;;;;;;;3.55;1.60;;;;;;;19.48;45.15;101854.66;5050391;28;20156;-75
2021/01/17 10:23:12;;;;;;;4.43;2.00;;;;;;;19.53;45.43;101873.09;5021081;28;20021;-75
2021/01/17 10:25:38;;;;;;;3.65;2.00;;;;;;;19.49;45.43;101866.94;5034998;28;20064;-75
2021/01/17 10:28:06;;;;;;;3.33;1.67;;;;;;;19.51;45.48;101862.56;5040983;28;20065;-78
2021/01/17 10:30:34;;;;;;;3.72;1.58;;;;;;;19.49;45.24;101876.53;5035993;28;20021;-79
2021/01/17 10:33:06;;;;;;;4.63;1.50;;;;;;;19.55;45.44;101881.84;5052531;28;20035;-79
2021/01/17 10:35:46;;;;;;;3.38;1.85;;;;;;;19.55;45.33;101887.09;5036613;28;20024;-78
2021/01/17 10:38:13;;;;;;;9.88;1.73;;;;;;;19.57;45.19;101891.50;5035305;28;20033;-78
2021/01/17 10:40:39;;;;;;;3.85;1.75;;;;;;;19.52;45.31;101882.69;5052015;28;20788;-79
2021/01/17 10:43:28;;;;;;;4.03;1.63;;;;;;;19.57;45.51;101898.50;5053520;28;20021;-79
2021/01/17 10:46:08;;;;;;;8.60;1.50;;;;;;;19.59;45.09;101897.63;5027012;28;20495;-76
2021/01/17 10:48:45;;;;;;;2.30;1.23;;;;;;;19.63;45.34;101894.16;5044788;28;20029;-74
2021/01/17 10:51:16;;;;;;;4.35;1.35;;;;;;;19.69;45.44;101905.56;5053549;28;20060;-80
2021/01/17 10:53:49;;;;;;;4.30;1.85;;;;;;;19.67;45.25;101905.56;5052853;28;20103;-78
2021/01/17 10:56:20;;;;;;;4.18;1.75;;;;;;;19.63;45.51;101909.00;5051682;28;20024;-78
2021/01/17 10:58:47;;;;;;;5.07;2.30;;;;;;;19.65;45.89;101909.91;5047352;28;20487;-78
2021/01/17 11:01:12;;;;;;;4.13;2.20;;;;;;;19.68;45.51;101901.19;5008654;28;20035;-79
2021/01/17 11:03:39;;;;;;;4.97;2.35;;;;;;;19.71;45.55;101906.47;5024879;28;20029;-78
2021/01/17 11:06:08;;;;;;;4.32;2.20;;;;;;;19.72;45.61;101908.22;5044962;28;20045;-78
2021/01/17 11:08:54;;;;;;;4.00;2.47;;;;;;;19.76;45.55;101899.47;5054399;28;20040;-79
2021/01/17 11:11:24;;;;;;;3.45;2.30;;;;;;;19.67;45.77;101899.41;5044366;28;20128;-80
2021/01/17 11:14:01;;;;;;;3.47;2.00;;;;;;;19.70;45.62;101909.94;5033547;28;20040;-76
2021/01/17 11:16:32;;;;;;;3.20;1.70;;;;;;;19.73;45.63;101910.84;5036164;28;20052;-80
2021/01/17 11:18:58;;;;;;;2.20;1.60;;;;;;;19.69;45.57;101908.19;5047171;28;20035;-79
2021/01/17 11:21:24;;;;;;;5.45;2.47;;;;;;;19.75;45.80;101914.34;5025785;28;20379;-78
2021/01/17 11:23:52;;;;;;;3.42;1.52;;;;;;;19.79;45.56;101903.00;5053444;28;20032;-80
2021/01/17 11:26:21;;;;;;;3.47;2.15;;;;;;;19.84;45.59;101900.41;5034171;28;20033;-80
2021/01/17 11:28:52;;;;;;;6.20;2.95;;;;;;;19.80;45.87;101901.25;5047402;28;20037;-78
2021/01/17 11:31:18;;;;;;;5.03;1.65;;;;;;;19.83;45.80;101903.91;5041669;28;20056;-80
2021/01/17 11:33:46;;;;;;;8.13;2.20;;;;;;;19.82;45.75;101915.28;5048535;28;20029;-80
2021/01/17 11:36:15;;;;;;;4.15;1.65;;;;;;;19.74;46.25;101902.09;5042653;28;20028;-80